sensor_id;sensor_type;location;lat;lon;timestamp;pressure;altitude;pressure_sealevel;temperature;humidity
45071;BME280;30836;48.906;9.140;2023-11-22T00:00:05;989.66;;;13.36;53.36
45071;BME280;30836;48.906;9.140;2023-11-22T00:01:10;989.66;;;13.38;52.93
45071;BME280;30836;48.906;9.140;2023-11-22T00:02:11;989.62;;;13.45;52.92
45071;BME280;30836;48.906;9.140;2023-11-22T00:03:11;989.64;;;13.53;52.52
45071;BME280;30836;48.906;9.140;2023-11-22T00:04:12;989.66;;;13.58;52.34
45071;BME280;30836;48.906;9.140;2023-11-22T00:05:13;989.66;;;13.56;52.28
45071;BME280;30836;48.906;9.140;2023-11-22T00:06:13;989.66;;;13.57;52.22
45071;BME280;30836;48.906;9.140;2023-11-22T00:07:13;989.70;;;13.65;51.87
45071;BME280;30836;48.906;9.140;2023-11-22T00:08:14;989.68;;;13.69;51.38
45071;BME280;30836;48.906;9.140;2023-11-22T00:09:14;989.66;;;13.65;51.81
45071;BME280;30836;48.906;9.140;2023-11-22T00:10:15;989.68;;;13.60;51.58
45071;BME280;30836;48.906;9.140;2023-11-22T00:11:15;989.70;;;13.61;51.24
45071;BME280;30836;48.906;9.140;2023-11-22T00:12:16;989.70;;;13.56;51.59
45071;BME280;30836;48.906;9.140;2023-11-22T00:13:16;989.72;;;13.49;51.53
45071;BME280;30836;48.906;9.140;2023-11-22T00:14:16;989.76;;;13.44;51.55
45071;BME280;30836;48.906;9.140;2023-11-22T00:15:17;989.72;;;13.38;51.45
45071;BME280;30836;48.906;9.140;2023-11-22T00:16:17;989.70;;;13.33;51.72
45071;BME280;30836;48.906;9.140;2023-11-22T00:17:18;989.70;;;13.30;51.43
45071;BME280;30836;48.906;9.140;2023-11-22T00:18:18;989.74;;;13.26;51.49
45071;BME280;30836;48.906;9.140;2023-11-22T00:19:18;989.76;;;13.17;51.69
45071;BME280;30836;48.906;9.140;2023-11-22T00:20:19;989.85;;;13.20;51.45
45071;BME280;30836;48.906;9.140;2023-11-22T00:21:19;989.87;;;13.25;51.41
45071;BME280;30836;48.906;9.140;2023-11-22T00:22:20;989.91;;;13.29;51.31
45071;BME280;30836;48.906;9.140;2023-11-22T00:23:20;989.92;;;13.34;51.01
45071;BME280;30836;48.906;9.140;2023-11-22T00:24:21;989.92;;;13.37;51.08
45071;BME280;30836;48.906;9.140;2023-11-22T00:25:21;989.94;;;13.34;51.32
45071;BME280;30836;48.906;9.140;2023-11-22T00:26:22;989.96;;;13.21;51.83
45071;BME280;30836;48.906;9.140;2023-11-22T00:27:22;989.92;;;12.97;52.32
45071;BME280;30836;48.906;9.140;2023-11-22T00:28:22;989.92;;;12.75;52.85
45071;BME280;30836;48.906;9.140;2023-11-22T00:29:23;989.96;;;12.60;53.00
45071;BME280;30836;48.906;9.140;2023-11-22T00:30:23;989.91;;;12.42;53.16
45071;BME280;30836;48.906;9.140;2023-11-22T00:31:24;989.92;;;12.15;54.07
45071;BME280;30836;48.906;9.140;2023-11-22T00:32:24;989.91;;;12.01;53.99
45071;BME280;30836;48.906;9.140;2023-11-22T00:33:25;989.92;;;12.02;54.03
45071;BME280;30836;48.906;9.140;2023-11-22T00:34:26;989.96;;;12.00;54.10
45071;BME280;30836;48.906;9.140;2023-11-22T00:35:26;990.00;;;11.96;53.81
45071;BME280;30836;48.906;9.140;2023-11-22T00:36:27;990.06;;;11.94;53.85
45071;BME280;30836;48.906;9.140;2023-11-22T00:37:27;990.06;;;11.81;54.64
45071;BME280;30836;48.906;9.140;2023-11-22T00:38:28;990.04;;;11.65;54.90
45071;BME280;30836;48.906;9.140;2023-11-22T00:39:28;990.04;;;11.58;54.82
45071;BME280;30836;48.906;9.140;2023-11-22T00:40:29;990.08;;;11.53;54.65
45071;BME280;30836;48.906;9.140;2023-11-22T00:41:30;990.12;;;11.49;54.96
45071;BME280;30836;48.906;9.140;2023-11-22T00:42:31;990.14;;;11.49;54.82
45071;BME280;30836;48.906;9.140;2023-11-22T00:43:31;990.16;;;11.62;54.12
45071;BME280;30836;48.906;9.140;2023-11-22T00:44:32;990.18;;;11.92;53.37
45071;BME280;30836;48.906;9.140;2023-11-22T00:45:32;990.18;;;12.25;52.57
45071;BME280;30836;48.906;9.140;2023-11-22T00:46:32;990.24;;;12.56;51.86
45071;BME280;30836;48.906;9.140;2023-11-22T00:47:33;990.26;;;12.83;51.26
45071;BME280;30836;48.906;9.140;2023-11-22T00:48:33;990.28;;;13.05;50.80
45071;BME280;30836;48.906;9.140;2023-11-22T00:49:34;990.30;;;13.19;50.58
45071;BME280;30836;48.906;9.140;2023-11-22T00:50:34;990.28;;;13.26;50.46
45071;BME280;30836;48.906;9.140;2023-11-22T00:51:35;990.30;;;13.31;50.17
45071;BME280;30836;48.906;9.140;2023-11-22T00:52:35;990.32;;;13.38;50.00
45071;BME280;30836;48.906;9.140;2023-11-22T00:53:36;990.28;;;13.40;49.69
45071;BME280;30836;48.906;9.140;2023-11-22T00:54:36;990.36;;;13.39;49.70
45071;BME280;30836;48.906;9.140;2023-11-22T00:55:36;990.28;;;13.37;49.66
45071;BME280;30836;48.906;9.140;2023-11-22T00:56:37;990.34;;;13.31;49.81
45071;BME280;30836;48.906;9.140;2023-11-22T00:57:37;990.34;;;13.32;49.49
45071;BME280;30836;48.906;9.140;2023-11-22T00:58:38;990.36;;;13.35;49.55
45071;BME280;30836;48.906;9.140;2023-11-22T00:59:39;990.38;;;13.36;49.35
45071;BME280;30836;48.906;9.140;2023-11-22T01:00:39;990.36;;;13.19;49.90
45071;BME280;30836;48.906;9.140;2023-11-22T01:01:40;990.34;;;12.79;50.22
45071;BME280;30836;48.906;9.140;2023-11-22T01:02:40;990.36;;;12.57;50.47
45071;BME280;30836;48.906;9.140;2023-11-22T01:03:41;990.38;;;12.41;50.10
45071;BME280;30836;48.906;9.140;2023-11-22T01:04:41;990.38;;;12.25;50.57
45071;BME280;30836;48.906;9.140;2023-11-22T01:05:42;990.40;;;12.17;50.38
45071;BME280;30836;48.906;9.140;2023-11-22T01:06:42;990.42;;;12.16;50.59
45071;BME280;30836;48.906;9.140;2023-11-22T01:07:43;990.46;;;12.18;50.48
45071;BME280;30836;48.906;9.140;2023-11-22T01:08:43;990.46;;;12.21;50.13
45071;BME280;30836;48.906;9.140;2023-11-22T01:09:43;990.47;;;12.24;50.29
45071;BME280;30836;48.906;9.140;2023-11-22T01:10:44;990.47;;;12.28;49.90
45071;BME280;30836;48.906;9.140;2023-11-22T01:11:44;990.53;;;12.34;49.60
45071;BME280;30836;48.906;9.140;2023-11-22T01:12:45;990.53;;;12.28;49.97
45071;BME280;30836;48.906;9.140;2023-11-22T01:13:46;990.51;;;12.16;49.99
45071;BME280;30836;48.906;9.140;2023-11-22T01:14:46;990.55;;;12.19;49.84
45071;BME280;30836;48.906;9.140;2023-11-22T01:15:46;990.55;;;12.25;49.89
45071;BME280;30836;48.906;9.140;2023-11-22T01:16:47;990.55;;;12.25;49.55
45071;BME280;30836;48.906;9.140;2023-11-22T01:17:47;990.61;;;12.21;49.56
45071;BME280;30836;48.906;9.140;2023-11-22T01:18:48;990.63;;;12.08;49.45
45071;BME280;30836;48.906;9.140;2023-11-22T01:19:48;990.65;;;11.88;50.35
45071;BME280;30836;48.906;9.140;2023-11-22T01:20:49;990.65;;;11.83;50.01
45071;BME280;30836;48.906;9.140;2023-11-22T01:21:49;990.67;;;11.81;50.40
45071;BME280;30836;48.906;9.140;2023-11-22T01:22:49;990.65;;;11.80;50.07
45071;BME280;30836;48.906;9.140;2023-11-22T01:23:50;990.69;;;11.95;49.65
45071;BME280;30836;48.906;9.140;2023-11-22T01:24:50;990.73;;;12.13;49.26
45071;BME280;30836;48.906;9.140;2023-11-22T01:25:51;990.75;;;12.28;48.95
45071;BME280;30836;48.906;9.140;2023-11-22T01:26:51;990.71;;;12.33;48.45
45071;BME280;30836;48.906;9.140;2023-11-22T01:27:51;990.71;;;12.36;48.10
45071;BME280;30836;48.906;9.140;2023-11-22T01:28:52;990.73;;;12.46;47.90
45071;BME280;30836;48.906;9.140;2023-11-22T01:29:52;990.71;;;12.52;47.69
45071;BME280;30836;48.906;9.140;2023-11-22T01:30:53;990.69;;;12.55;47.63
45071;BME280;30836;48.906;9.140;2023-11-22T01:31:54;990.73;;;12.60;47.81
45071;BME280;30836;48.906;9.140;2023-11-22T01:32:54;990.71;;;12.63;47.70
45071;BME280;30836;48.906;9.140;2023-11-22T01:33:55;990.73;;;12.65;47.71
45071;BME280;30836;48.906;9.140;2023-11-22T01:34:55;990.75;;;12.72;47.27
45071;BME280;30836;48.906;9.140;2023-11-22T01:35:56;990.81;;;12.76;47.19
45071;BME280;30836;48.906;9.140;2023-11-22T01:36:56;990.81;;;12.75;47.19
45071;BME280;30836;48.906;9.140;2023-11-22T01:37:57;990.81;;;12.73;47.19
45071;BME280;30836;48.906;9.140;2023-11-22T01:38:57;990.83;;;12.70;47.15
45071;BME280;30836;48.906;9.140;2023-11-22T01:39:58;990.81;;;12.69;47.41
45071;BME280;30836;48.906;9.140;2023-11-22T01:40:58;990.77;;;12.68;47.19
45071;BME280;30836;48.906;9.140;2023-11-22T01:41:59;990.79;;;12.60;47.58
45071;BME280;30836;48.906;9.140;2023-11-22T01:42:59;990.81;;;12.45;47.61
45071;BME280;30836;48.906;9.140;2023-11-22T01:44:00;990.81;;;12.32;47.95
45071;BME280;30836;48.906;9.140;2023-11-22T01:45:00;990.81;;;12.13;48.47
45071;BME280;30836;48.906;9.140;2023-11-22T01:46:01;990.81;;;11.86;49.37
45071;BME280;30836;48.906;9.140;2023-11-22T01:47:02;990.81;;;11.45;49.95
45071;BME280;30836;48.906;9.140;2023-11-22T01:48:05;990.81;;;11.16;50.69
45071;BME280;30836;48.906;9.140;2023-11-22T01:49:05;990.83;;;11.12;50.13
45071;BME280;30836;48.906;9.140;2023-11-22T01:50:06;990.85;;;11.24;49.88
45071;BME280;30836;48.906;9.140;2023-11-22T01:51:07;990.85;;;11.41;49.15
45071;BME280;30836;48.906;9.140;2023-11-22T01:52:07;990.89;;;11.59;48.55
45071;BME280;30836;48.906;9.140;2023-11-22T01:53:08;990.94;;;11.73;48.40
45071;BME280;30836;48.906;9.140;2023-11-22T01:54:11;990.96;;;11.88;48.16
45071;BME280;30836;48.906;9.140;2023-11-22T01:55:12;991.00;;;11.98;47.81
45071;BME280;30836;48.906;9.140;2023-11-22T01:56:13;991.02;;;12.07;47.59
45071;BME280;30836;48.906;9.140;2023-11-22T01:57:14;991.06;;;12.22;47.28
45071;BME280;30836;48.906;9.140;2023-11-22T01:58:14;991.06;;;12.32;46.95
45071;BME280;30836;48.906;9.140;2023-11-22T01:59:15;991.08;;;12.35;47.06
45071;BME280;30836;48.906;9.140;2023-11-22T02:00:16;991.08;;;12.33;47.13
45071;BME280;30836;48.906;9.140;2023-11-22T02:01:20;991.10;;;12.27;47.25
45071;BME280;30836;48.906;9.140;2023-11-22T02:02:20;991.14;;;12.29;47.06
45071;BME280;30836;48.906;9.140;2023-11-22T02:03:21;991.08;;;12.38;46.90
45071;BME280;30836;48.906;9.140;2023-11-22T02:04:21;991.12;;;12.46;46.66
45071;BME280;30836;48.906;9.140;2023-11-22T02:05:22;991.14;;;12.49;46.83
45071;BME280;30836;48.906;9.140;2023-11-22T02:06:22;991.12;;;12.53;46.76
45071;BME280;30836;48.906;9.140;2023-11-22T02:07:23;991.12;;;12.45;46.98
45071;BME280;30836;48.906;9.140;2023-11-22T02:08:26;991.14;;;12.25;47.55
45071;BME280;30836;48.906;9.140;2023-11-22T02:09:27;991.16;;;12.16;47.38
45071;BME280;30836;48.906;9.140;2023-11-22T02:10:27;991.16;;;12.15;47.28
45071;BME280;30836;48.906;9.140;2023-11-22T02:11:28;991.20;;;12.19;47.20
45071;BME280;30836;48.906;9.140;2023-11-22T02:12:28;991.22;;;12.27;47.01
45071;BME280;30836;48.906;9.140;2023-11-22T02:13:29;991.20;;;12.39;46.86
45071;BME280;30836;48.906;9.140;2023-11-22T02:14:30;991.24;;;12.50;46.76
45071;BME280;30836;48.906;9.140;2023-11-22T02:15:31;991.28;;;12.58;46.73
45071;BME280;30836;48.906;9.140;2023-11-22T02:16:31;991.28;;;12.64;46.70
45071;BME280;30836;48.906;9.140;2023-11-22T02:17:32;991.28;;;12.72;46.45
45071;BME280;30836;48.906;9.140;2023-11-22T02:18:32;991.32;;;12.78;46.25
45071;BME280;30836;48.906;9.140;2023-11-22T02:19:33;991.32;;;12.76;46.49
45071;BME280;30836;48.906;9.140;2023-11-22T02:20:33;991.32;;;12.66;46.69
45071;BME280;30836;48.906;9.140;2023-11-22T02:21:34;991.36;;;12.60;46.66
45071;BME280;30836;48.906;9.140;2023-11-22T02:22:41;991.32;;;12.60;46.58
45071;BME280;30836;48.906;9.140;2023-11-22T02:23:43;991.34;;;12.62;46.47
45071;BME280;30836;48.906;9.140;2023-11-22T02:24:43;991.38;;;12.64;46.44
45071;BME280;30836;48.906;9.140;2023-11-22T02:25:43;991.38;;;12.63;46.76
45071;BME280;30836;48.906;9.140;2023-11-22T02:26:44;991.36;;;12.60;46.85
45071;BME280;30836;48.906;9.140;2023-11-22T02:27:45;991.36;;;12.62;46.60
45071;BME280;30836;48.906;9.140;2023-11-22T02:28:46;991.36;;;12.65;46.34
45071;BME280;30836;48.906;9.140;2023-11-22T02:29:46;991.36;;;12.62;46.66
45071;BME280;30836;48.906;9.140;2023-11-22T02:30:46;991.40;;;12.58;46.57
45071;BME280;30836;48.906;9.140;2023-11-22T02:31:48;991.42;;;12.53;46.50
45071;BME280;30836;48.906;9.140;2023-11-22T02:31:58;991.46;;;12.39;46.57
45071;BME280;30836;48.906;9.140;2023-11-22T02:32:58;991.44;;;12.39;46.62
45071;BME280;30836;48.906;9.140;2023-11-22T02:33:59;991.42;;;12.29;46.71
45071;BME280;30836;48.906;9.140;2023-11-22T02:35:00;991.44;;;12.10;47.10
45071;BME280;30836;48.906;9.140;2023-11-22T02:36:00;991.42;;;11.96;47.50
45071;BME280;30836;48.906;9.140;2023-11-22T02:37:00;991.46;;;11.82;48.24
45071;BME280;30836;48.906;9.140;2023-11-22T02:38:01;991.46;;;11.64;47.74
45071;BME280;30836;48.906;9.140;2023-11-22T02:39:01;991.48;;;11.46;47.62
45071;BME280;30836;48.906;9.140;2023-11-22T02:40:06;991.51;;;11.28;48.69
45071;BME280;30836;48.906;9.140;2023-11-22T02:41:15;991.48;;;11.13;48.67
45071;BME280;30836;48.906;9.140;2023-11-22T02:42:15;991.48;;;11.11;48.58
45071;BME280;30836;48.906;9.140;2023-11-22T02:43:15;991.49;;;11.11;48.59
45071;BME280;30836;48.906;9.140;2023-11-22T02:44:16;991.51;;;11.11;48.38
45071;BME280;30836;48.906;9.140;2023-11-22T02:45:17;991.51;;;11.09;48.53
45071;BME280;30836;48.906;9.140;2023-11-22T02:46:18;991.55;;;11.12;48.42
45071;BME280;30836;48.906;9.140;2023-11-22T02:47:19;991.59;;;11.18;48.52
45071;BME280;30836;48.906;9.140;2023-11-22T02:48:19;991.57;;;11.22;48.72
45071;BME280;30836;48.906;9.140;2023-11-22T02:49:19;991.61;;;11.26;48.53
45071;BME280;30836;48.906;9.140;2023-11-22T02:50:20;991.61;;;11.32;48.37
45071;BME280;30836;48.906;9.140;2023-11-22T02:51:21;991.61;;;11.37;48.64
45071;BME280;30836;48.906;9.140;2023-11-22T02:52:21;991.61;;;11.42;48.62
45071;BME280;30836;48.906;9.140;2023-11-22T02:53:22;991.59;;;11.48;48.54
45071;BME280;30836;48.906;9.140;2023-11-22T02:54:22;991.61;;;11.53;48.55
45071;BME280;30836;48.906;9.140;2023-11-22T02:55:22;991.65;;;11.56;48.44
45071;BME280;30836;48.906;9.140;2023-11-22T02:56:23;991.65;;;11.61;48.51
45071;BME280;30836;48.906;9.140;2023-11-22T02:57:23;991.69;;;11.62;48.71
45071;BME280;30836;48.906;9.140;2023-11-22T02:58:24;991.69;;;11.53;48.65
45071;BME280;30836;48.906;9.140;2023-11-22T02:59:25;991.71;;;11.40;48.70
45071;BME280;30836;48.906;9.140;2023-11-22T03:00:25;991.71;;;11.37;48.73
45071;BME280;30836;48.906;9.140;2023-11-22T03:01:26;991.71;;;11.31;48.86
45071;BME280;30836;48.906;9.140;2023-11-22T03:02:26;991.75;;;11.24;48.78
45071;BME280;30836;48.906;9.140;2023-11-22T03:03:26;991.75;;;11.24;48.78
45071;BME280;30836;48.906;9.140;2023-11-22T03:04:27;991.81;;;11.30;48.61
45071;BME280;30836;48.906;9.140;2023-11-22T03:05:27;991.83;;;11.36;48.43
45071;BME280;30836;48.906;9.140;2023-11-22T03:06:28;991.83;;;11.37;48.54
45071;BME280;30836;48.906;9.140;2023-11-22T03:07:28;991.81;;;11.36;48.64
45071;BME280;30836;48.906;9.140;2023-11-22T03:08:29;991.85;;;11.41;48.58
45071;BME280;30836;48.906;9.140;2023-11-22T03:09:30;991.85;;;11.48;48.50
45071;BME280;30836;48.906;9.140;2023-11-22T03:10:30;991.89;;;11.50;48.35
45071;BME280;30836;48.906;9.140;2023-11-22T03:11:31;991.91;;;11.47;48.53
45071;BME280;30836;48.906;9.140;2023-11-22T03:12:31;991.91;;;11.46;48.73
45071;BME280;30836;48.906;9.140;2023-11-22T03:13:31;991.95;;;11.43;48.66
45071;BME280;30836;48.906;9.140;2023-11-22T03:14:32;991.93;;;11.42;48.89
45071;BME280;30836;48.906;9.140;2023-11-22T03:15:32;991.98;;;11.44;48.85
45071;BME280;30836;48.906;9.140;2023-11-22T03:16:33;991.98;;;11.49;48.76
45071;BME280;30836;48.906;9.140;2023-11-22T03:17:33;991.98;;;11.52;48.63
45071;BME280;30836;48.906;9.140;2023-11-22T03:18:34;992.00;;;11.53;48.58
45071;BME280;30836;48.906;9.140;2023-11-22T03:19:34;992.00;;;11.50;48.50
45071;BME280;30836;48.906;9.140;2023-11-22T03:20:35;992.02;;;11.45;48.64
45071;BME280;30836;48.906;9.140;2023-11-22T03:21:35;992.06;;;11.45;48.55
45071;BME280;30836;48.906;9.140;2023-11-22T03:22:36;992.06;;;11.47;48.59
45071;BME280;30836;48.906;9.140;2023-11-22T03:23:37;992.06;;;11.46;48.58
45071;BME280;30836;48.906;9.140;2023-11-22T03:24:38;992.06;;;11.43;48.64
45071;BME280;30836;48.906;9.140;2023-11-22T03:25:38;992.06;;;11.44;48.64
45071;BME280;30836;48.906;9.140;2023-11-22T03:26:39;992.08;;;11.44;48.40
45071;BME280;30836;48.906;9.140;2023-11-22T03:27:39;992.08;;;11.44;48.40
45071;BME280;30836;48.906;9.140;2023-11-22T03:28:40;992.12;;;11.45;48.50
45071;BME280;30836;48.906;9.140;2023-11-22T03:29:40;992.10;;;11.47;48.53
45071;BME280;30836;48.906;9.140;2023-11-22T03:30:41;992.10;;;11.50;48.35
45071;BME280;30836;48.906;9.140;2023-11-22T03:31:41;992.10;;;11.53;48.13
45071;BME280;30836;48.906;9.140;2023-11-22T03:32:42;992.08;;;11.55;48.01
45071;BME280;30836;48.906;9.140;2023-11-22T03:33:42;992.06;;;11.50;48.18
45071;BME280;30836;48.906;9.140;2023-11-22T03:34:43;992.06;;;11.43;48.13
45071;BME280;30836;48.906;9.140;2023-11-22T03:35:43;992.06;;;11.43;48.19
45071;BME280;30836;48.906;9.140;2023-11-22T03:36:44;992.08;;;11.45;48.17
45071;BME280;30836;48.906;9.140;2023-11-22T03:37:44;992.08;;;11.48;48.26
45071;BME280;30836;48.906;9.140;2023-11-22T03:38:44;992.14;;;11.53;48.16
45071;BME280;30836;48.906;9.140;2023-11-22T03:39:45;992.18;;;11.59;48.08
45071;BME280;30836;48.906;9.140;2023-11-22T03:40:45;992.20;;;11.64;47.97
45071;BME280;30836;48.906;9.140;2023-11-22T03:41:46;992.26;;;11.69;47.82
45071;BME280;30836;48.906;9.140;2023-11-22T03:42:46;992.30;;;11.72;47.58
45071;BME280;30836;48.906;9.140;2023-11-22T03:43:46;992.34;;;11.76;47.51
45071;BME280;30836;48.906;9.140;2023-11-22T03:44:47;992.42;;;11.78;47.67
45071;BME280;30836;48.906;9.140;2023-11-22T03:45:47;992.44;;;11.80;47.73
45071;BME280;30836;48.906;9.140;2023-11-22T03:46:48;992.46;;;11.83;47.74
45071;BME280;30836;48.906;9.140;2023-11-22T03:47:48;992.44;;;11.86;47.55
45071;BME280;30836;48.906;9.140;2023-11-22T03:48:49;992.46;;;11.85;47.46
45071;BME280;30836;48.906;9.140;2023-11-22T03:49:49;992.48;;;11.83;47.45
45071;BME280;30836;48.906;9.140;2023-11-22T03:50:49;992.44;;;11.85;47.34
45071;BME280;30836;48.906;9.140;2023-11-22T03:51:50;992.48;;;11.92;47.22
45071;BME280;30836;48.906;9.140;2023-11-22T03:52:50;992.48;;;11.98;47.16
45071;BME280;30836;48.906;9.140;2023-11-22T03:53:51;992.52;;;12.04;47.01
45071;BME280;30836;48.906;9.140;2023-11-22T03:54:51;992.54;;;12.08;46.92
45071;BME280;30836;48.906;9.140;2023-11-22T03:55:52;992.58;;;12.08;47.09
45071;BME280;30836;48.906;9.140;2023-11-22T03:56:52;992.58;;;12.01;47.93
45071;BME280;30836;48.906;9.140;2023-11-22T03:57:53;992.54;;;11.92;47.96
45071;BME280;30836;48.906;9.140;2023-11-22T03:58:53;992.56;;;11.88;47.81
45071;BME280;30836;48.906;9.140;2023-11-22T03:59:54;992.56;;;11.82;47.53
45071;BME280;30836;48.906;9.140;2023-11-22T04:00:54;992.60;;;11.76;47.64
45071;BME280;30836;48.906;9.140;2023-11-22T04:01:55;992.60;;;11.70;47.67
45071;BME280;30836;48.906;9.140;2023-11-22T04:02:55;992.62;;;11.62;47.57
45071;BME280;30836;48.906;9.140;2023-11-22T04:03:56;992.58;;;11.57;47.64
45071;BME280;30836;48.906;9.140;2023-11-22T04:04:56;992.58;;;11.54;47.69
45071;BME280;30836;48.906;9.140;2023-11-22T04:05:57;992.54;;;11.47;47.78
45071;BME280;30836;48.906;9.140;2023-11-22T04:06:57;992.54;;;11.36;47.71
45071;BME280;30836;48.906;9.140;2023-11-22T04:07:58;992.56;;;11.28;47.74
45071;BME280;30836;48.906;9.140;2023-11-22T04:08:58;992.56;;;11.32;47.46
45071;BME280;30836;48.906;9.140;2023-11-22T04:09:59;992.60;;;11.38;47.44
45071;BME280;30836;48.906;9.140;2023-11-22T04:10:59;992.56;;;11.40;47.26
45071;BME280;30836;48.906;9.140;2023-11-22T04:11:59;992.58;;;11.38;47.27
45071;BME280;30836;48.906;9.140;2023-11-22T04:13:00;992.58;;;11.34;47.26
45071;BME280;30836;48.906;9.140;2023-11-22T04:14:00;992.58;;;11.30;47.51
45071;BME280;30836;48.906;9.140;2023-11-22T04:15:01;992.58;;;11.32;47.58
45071;BME280;30836;48.906;9.140;2023-11-22T04:16:01;992.62;;;11.32;47.61
45071;BME280;30836;48.906;9.140;2023-11-22T04:17:02;992.64;;;11.29;47.40
45071;BME280;30836;48.906;9.140;2023-11-22T04:18:02;992.66;;;11.29;47.52
45071;BME280;30836;48.906;9.140;2023-11-22T04:19:03;992.64;;;11.29;47.53
45071;BME280;30836;48.906;9.140;2023-11-22T04:20:04;992.66;;;11.22;47.80
45071;BME280;30836;48.906;9.140;2023-11-22T04:21:06;992.66;;;11.06;47.74
45071;BME280;30836;48.906;9.140;2023-11-22T04:22:08;992.66;;;10.87;47.83
45071;BME280;30836;48.906;9.140;2023-11-22T04:23:08;992.66;;;10.77;48.16
45071;BME280;30836;48.906;9.140;2023-11-22T04:24:08;992.68;;;10.75;48.38
45071;BME280;30836;48.906;9.140;2023-11-22T04:25:09;992.66;;;10.73;48.40
45071;BME280;30836;48.906;9.140;2023-11-22T04:26:09;992.68;;;10.76;48.29
45071;BME280;30836;48.906;9.140;2023-11-22T04:27:10;992.66;;;10.82;47.95
45071;BME280;30836;48.906;9.140;2023-11-22T04:28:10;992.68;;;10.86;47.98
45071;BME280;30836;48.906;9.140;2023-11-22T04:29:11;992.72;;;10.90;47.91
45071;BME280;30836;48.906;9.140;2023-11-22T04:30:11;992.73;;;10.94;47.90
45071;BME280;30836;48.906;9.140;2023-11-22T04:31:12;992.75;;;10.98;47.90
45071;BME280;30836;48.906;9.140;2023-11-22T04:32:12;992.75;;;11.07;47.62
45071;BME280;30836;48.906;9.140;2023-11-22T04:33:13;992.79;;;11.15;47.36
45071;BME280;30836;48.906;9.140;2023-11-22T04:34:13;992.81;;;11.22;47.38
45071;BME280;30836;48.906;9.140;2023-11-22T04:35:14;992.87;;;11.27;47.28
45071;BME280;30836;48.906;9.140;2023-11-22T04:36:14;992.89;;;11.32;47.19
45071;BME280;30836;48.906;9.140;2023-11-22T04:37:14;992.91;;;11.37;47.15
45071;BME280;30836;48.906;9.140;2023-11-22T04:38:15;992.97;;;11.40;46.99
45071;BME280;30836;48.906;9.140;2023-11-22T04:39:16;992.95;;;11.42;47.02
45071;BME280;30836;48.906;9.140;2023-11-22T04:40:16;992.95;;;11.45;47.05
45071;BME280;30836;48.906;9.140;2023-11-22T04:41:16;992.95;;;11.47;46.85
45071;BME280;30836;48.906;9.140;2023-11-22T04:42:17;992.99;;;11.46;46.83
45071;BME280;30836;48.906;9.140;2023-11-22T04:43:17;993.05;;;11.46;46.86
45071;BME280;30836;48.906;9.140;2023-11-22T04:44:18;993.07;;;11.46;46.82
45071;BME280;30836;48.906;9.140;2023-11-22T04:45:18;993.09;;;11.47;46.95
45071;BME280;30836;48.906;9.140;2023-11-22T04:46:19;993.15;;;11.48;47.03
45071;BME280;30836;48.906;9.140;2023-11-22T04:47:19;993.15;;;11.47;46.84
45071;BME280;30836;48.906;9.140;2023-11-22T04:48:19;993.11;;;11.41;46.56
45071;BME280;30836;48.906;9.140;2023-11-22T04:49:20;993.13;;;11.38;46.76
45071;BME280;30836;48.906;9.140;2023-11-22T04:50:20;993.15;;;11.41;46.80
45071;BME280;30836;48.906;9.140;2023-11-22T04:51:21;993.19;;;11.53;46.49
45071;BME280;30836;48.906;9.140;2023-11-22T04:52:21;993.21;;;11.69;46.21
45071;BME280;30836;48.906;9.140;2023-11-22T04:53:21;993.25;;;11.83;45.93
45071;BME280;30836;48.906;9.140;2023-11-22T04:54:22;993.27;;;11.95;45.83
45071;BME280;30836;48.906;9.140;2023-11-22T04:55:22;993.28;;;12.10;45.31
45071;BME280;30836;48.906;9.140;2023-11-22T04:56:23;993.30;;;12.16;45.18
45071;BME280;30836;48.906;9.140;2023-11-22T04:57:23;993.32;;;12.18;45.30
45071;BME280;30836;48.906;9.140;2023-11-22T04:58:24;993.32;;;12.24;45.26
45071;BME280;30836;48.906;9.140;2023-11-22T04:59:24;993.32;;;12.34;44.89
45071;BME280;30836;48.906;9.140;2023-11-22T05:00:24;993.34;;;12.44;44.48
45071;BME280;30836;48.906;9.140;2023-11-22T05:01:30;993.34;;;12.51;44.12
45071;BME280;30836;48.906;9.140;2023-11-22T05:02:34;993.30;;;12.56;43.56
45071;BME280;30836;48.906;9.140;2023-11-22T05:03:34;993.32;;;12.59;43.64
45071;BME280;30836;48.906;9.140;2023-11-22T05:04:35;993.36;;;12.58;43.63
45071;BME280;30836;48.906;9.140;2023-11-22T05:05:35;993.38;;;12.59;43.72
45071;BME280;30836;48.906;9.140;2023-11-22T05:06:36;993.36;;;12.65;43.76
45071;BME280;30836;48.906;9.140;2023-11-22T05:07:36;993.38;;;12.71;43.67
45071;BME280;30836;48.906;9.140;2023-11-22T05:08:37;993.38;;;12.79;43.63
45071;BME280;30836;48.906;9.140;2023-11-22T05:09:37;993.40;;;12.85;43.50
45071;BME280;30836;48.906;9.140;2023-11-22T05:10:37;993.42;;;12.88;43.51
45071;BME280;30836;48.906;9.140;2023-11-22T05:11:38;993.44;;;12.88;43.53
45071;BME280;30836;48.906;9.140;2023-11-22T05:12:38;993.46;;;12.87;43.59
45071;BME280;30836;48.906;9.140;2023-11-22T05:13:39;993.46;;;12.88;43.71
45071;BME280;30836;48.906;9.140;2023-11-22T05:14:39;993.48;;;12.90;43.79
45071;BME280;30836;48.906;9.140;2023-11-22T05:15:40;993.48;;;12.93;43.88
45071;BME280;30836;48.906;9.140;2023-11-22T05:16:40;993.50;;;12.96;43.90
45071;BME280;30836;48.906;9.140;2023-11-22T05:17:41;993.52;;;12.98;43.84
45071;BME280;30836;48.906;9.140;2023-11-22T05:18:41;993.54;;;12.94;43.92
45071;BME280;30836;48.906;9.140;2023-11-22T05:19:41;993.56;;;12.90;43.83
45071;BME280;30836;48.906;9.140;2023-11-22T05:20:42;993.58;;;12.88;43.85
45071;BME280;30836;48.906;9.140;2023-11-22T05:21:42;993.56;;;12.86;43.85
45071;BME280;30836;48.906;9.140;2023-11-22T05:22:43;993.62;;;12.86;43.85
45071;BME280;30836;48.906;9.140;2023-11-22T05:23:43;993.62;;;12.88;43.83
45071;BME280;30836;48.906;9.140;2023-11-22T05:24:44;993.64;;;12.90;43.98
45071;BME280;30836;48.906;9.140;2023-11-22T05:25:44;993.64;;;12.91;44.00
45071;BME280;30836;48.906;9.140;2023-11-22T05:26:44;993.66;;;12.93;43.89
45071;BME280;30836;48.906;9.140;2023-11-22T05:27:45;993.66;;;12.94;43.92
45071;BME280;30836;48.906;9.140;2023-11-22T05:28:45;993.66;;;12.96;43.95